sensor_id;sensor_type;location;lat;lon;timestamp;P1;durP1;ratioP1;P2;durP2;ratioP2
67092;SDS011;54011;50.772;7.730;2022-11-02T00:01:24;9.27;;;1.42;;
67092;SDS011;54011;50.772;7.730;2022-11-02T00:03:53;11.15;;;1.30;;
67092;SDS011;54011;50.772;7.730;2022-11-02T00:06:26;9.80;;;1.63;;
67092;SDS011;54011;50.772;7.730;2022-11-02T00:08:51;9.32;;;1.00;;
67092;SDS011;54011;50.772;7.730;2022-11-02T00:11:17;12.40;;;1.70;;
67092;SDS011;54011;50.772;7.730;2022-11-02T00:13:43;10.05;;;1.40;;
67092;SDS011;54011;50.772;7.730;2022-11-02T00:16:10;8.20;;;1.55;;
67092;SDS011;54011;50.772;7.730;2022-11-02T00:18:39;14.30;;;1.80;;
67092;SDS011;54011;50.772;7.730;2022-11-02T00:21:07;10.52;;;1.65;;
67092;SDS011;54011;50.772;7.730;2022-11-02T00:23:33;9.27;;;1.60;;
67092;SDS011;54011;50.772;7.730;2022-11-02T00:25:59;13.45;;;2.13;;
67092;SDS011;54011;50.772;7.730;2022-11-02T00:28:26;8.90;;;1.50;;
67092;SDS011;54011;50.772;7.730;2022-11-02T00:30:55;19.20;;;2.08;;
67092;SDS011;54011;50.772;7.730;2022-11-02T00:33:20;6.95;;;1.60;;
67092;SDS011;54011;50.772;7.730;2022-11-02T00:35:45;13.70;;;1.38;;
67092;SDS011;54011;50.772;7.730;2022-11-02T00:38:11;12.85;;;1.90;;
67092;SDS011;54011;50.772;7.730;2022-11-02T00:40:37;14.45;;;1.85;;
67092;SDS011;54011;50.772;7.730;2022-11-02T00:43:02;14.82;;;1.50;;
67092;SDS011;54011;50.772;7.730;2022-11-02T00:45:28;15.75;;;2.03;;
67092;SDS011;54011;50.772;7.730;2022-11-02T00:47:57;7.93;;;1.70;;
67092;SDS011;54011;50.772;7.730;2022-11-02T00:50:22;11.45;;;1.58;;
67092;SDS011;54011;50.772;7.730;2022-11-02T00:52:54;13.10;;;2.00;;
67092;SDS011;54011;50.772;7.730;2022-11-02T00:55:19;14.75;;;2.20;;
67092;SDS011;54011;50.772;7.730;2022-11-02T00:57:45;4.22;;;1.23;;
67092;SDS011;54011;50.772;7.730;2022-11-02T01:00:11;8.68;;;1.45;;
67092;SDS011;54011;50.772;7.730;2022-11-02T01:05:15;5.97;;;1.20;;
67092;SDS011;54011;50.772;7.730;2022-11-02T01:07:41;10.95;;;1.73;;
67092;SDS011;54011;50.772;7.730;2022-11-02T01:10:08;5.80;;;1.58;;
67092;SDS011;54011;50.772;7.730;2022-11-02T01:12:38;12.18;;;1.60;;
67092;SDS011;54011;50.772;7.730;2022-11-02T01:15:05;8.23;;;1.33;;
67092;SDS011;54011;50.772;7.730;2022-11-02T01:17:32;7.55;;;1.35;;
67092;SDS011;54011;50.772;7.730;2022-11-02T01:19:58;14.68;;;1.85;;
67092;SDS011;54011;50.772;7.730;2022-11-02T01:22:23;21.45;;;2.40;;
67092;SDS011;54011;50.772;7.730;2022-11-02T01:24:49;6.72;;;0.93;;
67092;SDS011;54011;50.772;7.730;2022-11-02T01:27:16;18.77;;;1.85;;
67092;SDS011;54011;50.772;7.730;2022-11-02T01:29:45;10.38;;;1.45;;
67092;SDS011;54011;50.772;7.730;2022-11-02T01:32:10;10.65;;;1.83;;
67092;SDS011;54011;50.772;7.730;2022-11-02T01:34:36;10.68;;;1.73;;
67092;SDS011;54011;50.772;7.730;2022-11-02T01:37:01;7.90;;;1.35;;
67092;SDS011;54011;50.772;7.730;2022-11-02T01:39:27;13.70;;;2.00;;
67092;SDS011;54011;50.772;7.730;2022-11-02T01:41:52;15.70;;;1.80;;
67092;SDS011;54011;50.772;7.730;2022-11-02T01:44:24;10.48;;;1.70;;
67092;SDS011;54011;50.772;7.730;2022-11-02T01:47:00;11.75;;;1.77;;
67092;SDS011;54011;50.772;7.730;2022-11-02T01:49:30;11.52;;;1.42;;
67092;SDS011;54011;50.772;7.730;2022-11-02T01:52:06;7.78;;;1.23;;
67092;SDS011;54011;50.772;7.730;2022-11-02T01:54:40;8.20;;;2.10;;
67092;SDS011;54011;50.772;7.730;2022-11-02T01:57:11;8.05;;;1.60;;
67092;SDS011;54011;50.772;7.730;2022-11-02T01:59:44;12.90;;;1.85;;
67092;SDS011;54011;50.772;7.730;2022-11-02T02:02:19;16.90;;;1.80;;
67092;SDS011;54011;50.772;7.730;2022-11-02T02:04:48;10.77;;;1.63;;
67092;SDS011;54011;50.772;7.730;2022-11-02T02:07:17;14.52;;;1.92;;
67092;SDS011;54011;50.772;7.730;2022-11-02T02:09:43;6.88;;;1.20;;
67092;SDS011;54011;50.772;7.730;2022-11-02T02:12:10;14.25;;;1.63;;
67092;SDS011;54011;50.772;7.730;2022-11-02T02:14:36;12.00;;;2.08;;
67092;SDS011;54011;50.772;7.730;2022-11-02T02:20:01;5.47;;;1.15;;
67092;SDS011;54011;50.772;7.730;2022-11-02T02:32:01;11.82;;;1.90;;
67092;SDS011;54011;50.772;7.730;2022-11-02T02:34:18;16.80;;;1.88;;
67092;SDS011;54011;50.772;7.730;2022-11-02T02:39:42;9.70;;;1.58;;
67092;SDS011;54011;50.772;7.730;2022-11-02T02:42:33;10.25;;;1.50;;
67092;SDS011;54011;50.772;7.730;2022-11-02T02:47:41;7.00;;;1.55;;
67092;SDS011;54011;50.772;7.730;2022-11-02T02:50:17;11.32;;;1.63;;
67092;SDS011;54011;50.772;7.730;2022-11-02T02:52:47;13.93;;;2.00;;
67092;SDS011;54011;50.772;7.730;2022-11-02T02:55:17;11.55;;;1.80;;
67092;SDS011;54011;50.772;7.730;2022-11-02T02:57:46;10.10;;;1.58;;
67092;SDS011;54011;50.772;7.730;2022-11-02T03:00:15;10.00;;;1.40;;
67092;SDS011;54011;50.772;7.730;2022-11-02T03:02:44;9.40;;;1.63;;
67092;SDS011;54011;50.772;7.730;2022-11-02T03:05:27;12.15;;;2.47;;
67092;SDS011;54011;50.772;7.730;2022-11-02T03:07:59;10.45;;;1.70;;
67092;SDS011;54011;50.772;7.730;2022-11-02T03:10:32;8.88;;;1.58;;
67092;SDS011;54011;50.772;7.730;2022-11-02T03:13:09;12.65;;;2.13;;
67092;SDS011;54011;50.772;7.730;2022-11-02T03:15:44;7.55;;;1.40;;
67092;SDS011;54011;50.772;7.730;2022-11-02T03:21:05;8.80;;;1.85;;
67092;SDS011;54011;50.772;7.730;2022-11-02T03:26:21;14.30;;;1.80;;
67092;SDS011;54011;50.772;7.730;2022-11-02T03:28:56;5.05;;;1.20;;
67092;SDS011;54011;50.772;7.730;2022-11-02T03:34:22;14.65;;;2.03;;
67092;SDS011;54011;50.772;7.730;2022-11-02T03:39:58;9.45;;;1.70;;
67092;SDS011;54011;50.772;7.730;2022-11-02T03:42:39;8.25;;;1.60;;
67092;SDS011;54011;50.772;7.730;2022-11-02T03:45:20;11.63;;;2.10;;
67092;SDS011;54011;50.772;7.730;2022-11-02T03:47:49;8.13;;;1.60;;
67092;SDS011;54011;50.772;7.730;2022-11-02T03:50:20;8.18;;;1.73;;
67092;SDS011;54011;50.772;7.730;2022-11-02T03:52:49;10.02;;;1.65;;
67092;SDS011;54011;50.772;7.730;2022-11-02T03:55:28;9.35;;;1.85;;
67092;SDS011;54011;50.772;7.730;2022-11-02T03:57:57;9.27;;;2.03;;
67092;SDS011;54011;50.772;7.730;2022-11-02T04:00:28;13.43;;;2.17;;
67092;SDS011;54011;50.772;7.730;2022-11-02T04:03:03;12.05;;;2.33;;
67092;SDS011;54011;50.772;7.730;2022-11-02T04:05:33;11.88;;;2.38;;
67092;SDS011;54011;50.772;7.730;2022-11-02T04:08:08;7.55;;;1.77;;
67092;SDS011;54011;50.772;7.730;2022-11-02T04:14:31;9.55;;;1.77;;
67092;SDS011;54011;50.772;7.730;2022-11-02T04:17:06;16.60;;;2.03;;
67092;SDS011;54011;50.772;7.730;2022-11-02T04:19:54;8.82;;;2.00;;
67092;SDS011;54011;50.772;7.730;2022-11-02T04:22:20;8.20;;;1.67;;
67092;SDS011;54011;50.772;7.730;2022-11-02T04:25:12;10.95;;;2.20;;
67092;SDS011;54011;50.772;7.730;2022-11-02T04:27:45;10.32;;;2.28;;
67092;SDS011;54011;50.772;7.730;2022-11-02T04:30:12;10.35;;;2.40;;
67092;SDS011;54011;50.772;7.730;2022-11-02T04:32:42;7.05;;;1.90;;
67092;SDS011;54011;50.772;7.730;2022-11-02T04:35:31;8.30;;;1.60;;
67092;SDS011;54011;50.772;7.730;2022-11-02T04:37:59;9.95;;;2.03;;
67092;SDS011;54011;50.772;7.730;2022-11-02T04:40:43;11.68;;;1.63;;
67092;SDS011;54011;50.772;7.730;2022-11-02T04:43:09;9.77;;;2.00;;
67092;SDS011;54011;50.772;7.730;2022-11-02T04:45:35;9.88;;;2.00;;
67092;SDS011;54011;50.772;7.730;2022-11-02T04:48:05;15.80;;;2.50;;
67092;SDS011;54011;50.772;7.730;2022-11-02T04:50:33;9.80;;;2.17;;
67092;SDS011;54011;50.772;7.730;2022-11-02T04:52:59;9.82;;;1.73;;
67092;SDS011;54011;50.772;7.730;2022-11-02T04:55:28;11.90;;;2.08;;
67092;SDS011;54011;50.772;7.730;2022-11-02T04:57:54;12.00;;;2.13;;
67092;SDS011;54011;50.772;7.730;2022-11-02T05:00:21;10.02;;;2.40;;
67092;SDS011;54011;50.772;7.730;2022-11-02T05:02:49;15.45;;;2.08;;
67092;SDS011;54011;50.772;7.730;2022-11-02T05:05:17;14.48;;;2.30;;
67092;SDS011;54011;50.772;7.730;2022-11-02T05:07:43;11.73;;;2.55;;
67092;SDS011;54011;50.772;7.730;2022-11-02T05:10:09;8.57;;;1.90;;
67092;SDS011;54011;50.772;7.730;2022-11-02T05:12:35;9.10;;;1.70;;
67092;SDS011;54011;50.772;7.730;2022-11-02T05:15:01;9.73;;;1.83;;
67092;SDS011;54011;50.772;7.730;2022-11-02T05:17:30;15.75;;;2.88;;
67092;SDS011;54011;50.772;7.730;2022-11-02T05:19:56;9.95;;;1.90;;
67092;SDS011;54011;50.772;7.730;2022-11-02T05:22:21;9.05;;;2.03;;
67092;SDS011;54011;50.772;7.730;2022-11-02T05:24:46;13.13;;;1.73;;
67092;SDS011;54011;50.772;7.730;2022-11-02T05:27:12;10.20;;;1.80;;
67092;SDS011;54011;50.772;7.730;2022-11-02T05:29:39;8.88;;;2.08;;
67092;SDS011;54011;50.772;7.730;2022-11-02T05:32:05;7.00;;;1.80;;
67092;SDS011;54011;50.772;7.730;2022-11-02T05:34:31;11.75;;;1.98;;
67092;SDS011;54011;50.772;7.730;2022-11-02T05:36:57;12.85;;;2.28;;
67092;SDS011;54011;50.772;7.730;2022-11-02T05:39:23;12.18;;;2.55;;
67092;SDS011;54011;50.772;7.730;2022-11-02T05:41:49;7.65;;;1.70;;
67092;SDS011;54011;50.772;7.730;2022-11-02T05:44:15;11.13;;;2.00;;
67092;SDS011;54011;50.772;7.730;2022-11-02T05:46:42;7.95;;;2.10;;
67092;SDS011;54011;50.772;7.730;2022-11-02T05:49:10;11.35;;;2.15;;
67092;SDS011;54011;50.772;7.730;2022-11-02T05:51:35;4.47;;;1.20;;
67092;SDS011;54011;50.772;7.730;2022-11-02T05:54:01;12.70;;;2.15;;
67092;SDS011;54011;50.772;7.730;2022-11-02T05:56:26;8.35;;;1.83;;
67092;SDS011;54011;50.772;7.730;2022-11-02T05:58:52;11.27;;;1.85;;
67092;SDS011;54011;50.772;7.730;2022-11-02T06:01:18;11.15;;;1.67;;
67092;SDS011;54011;50.772;7.730;2022-11-02T06:03:50;13.07;;;1.88;;
67092;SDS011;54011;50.772;7.730;2022-11-02T06:06:15;11.15;;;2.15;;
67092;SDS011;54011;50.772;7.730;2022-11-02T06:08:41;10.15;;;1.85;;
67092;SDS011;54011;50.772;7.730;2022-11-02T06:11:09;10.35;;;1.75;;
67092;SDS011;54011;50.772;7.730;2022-11-02T06:13:36;12.05;;;2.25;;
67092;SDS011;54011;50.772;7.730;2022-11-02T06:16:02;13.00;;;2.20;;
67092;SDS011;54011;50.772;7.730;2022-11-02T06:18:29;8.55;;;2.03;;
67092;SDS011;54011;50.772;7.730;2022-11-02T06:20:56;10.93;;;2.10;;
67092;SDS011;54011;50.772;7.730;2022-11-02T06:23:22;10.35;;;2.05;;
67092;SDS011;54011;50.772;7.730;2022-11-02T06:25:49;6.00;;;1.45;;
67092;SDS011;54011;50.772;7.730;2022-11-02T06:28:15;8.38;;;1.88;;
67092;SDS011;54011;50.772;7.730;2022-11-02T06:30:41;15.20;;;2.47;;
67092;SDS011;54011;50.772;7.730;2022-11-02T06:33:07;13.38;;;2.17;;
67092;SDS011;54011;50.772;7.730;2022-11-02T06:35:32;11.07;;;2.22;;
67092;SDS011;54011;50.772;7.730;2022-11-02T06:37:58;11.88;;;2.35;;
67092;SDS011;54011;50.772;7.730;2022-11-02T06:40:24;9.75;;;2.05;;
67092;SDS011;54011;50.772;7.730;2022-11-02T06:42:53;10.73;;;1.80;;
67092;SDS011;54011;50.772;7.730;2022-11-02T06:45:23;7.70;;;1.80;;
67092;SDS011;54011;50.772;7.730;2022-11-02T06:47:48;9.80;;;2.65;;
67092;SDS011;54011;50.772;7.730;2022-11-02T06:50:15;9.77;;;1.95;;
67092;SDS011;54011;50.772;7.730;2022-11-02T06:52:41;9.82;;;2.38;;
67092;SDS011;54011;50.772;7.730;2022-11-02T06:55:08;12.43;;;1.98;;
67092;SDS011;54011;50.772;7.730;2022-11-02T06:57:34;11.52;;;2.40;;
67092;SDS011;54011;50.772;7.730;2022-11-02T07:00:01;16.42;;;2.42;;
67092;SDS011;54011;50.772;7.730;2022-11-02T07:02:29;8.15;;;1.90;;
67092;SDS011;54011;50.772;7.730;2022-11-02T07:04:54;10.10;;;2.33;;
67092;SDS011;54011;50.772;7.730;2022-11-02T07:07:21;12.90;;;2.05;;
67092;SDS011;54011;50.772;7.730;2022-11-02T07:09:46;10.02;;;1.80;;
67092;SDS011;54011;50.772;7.730;2022-11-02T07:12:13;15.88;;;1.98;;
67092;SDS011;54011;50.772;7.730;2022-11-02T07:14:38;9.82;;;2.00;;
67092;SDS011;54011;50.772;7.730;2022-11-02T07:17:04;12.77;;;2.42;;
67092;SDS011;54011;50.772;7.730;2022-11-02T07:19:30;16.20;;;2.88;;
67092;SDS011;54011;50.772;7.730;2022-11-02T07:21:55;11.35;;;2.45;;
67092;SDS011;54011;50.772;7.730;2022-11-02T07:24:21;10.25;;;1.80;;
67092;SDS011;54011;50.772;7.730;2022-11-02T07:26:47;11.68;;;2.75;;
67092;SDS011;54011;50.772;7.730;2022-11-02T07:29:14;6.30;;;1.60;;
67092;SDS011;54011;50.772;7.730;2022-11-02T07:31:40;11.95;;;2.00;;
67092;SDS011;54011;50.772;7.730;2022-11-02T07:34:08;9.70;;;1.85;;
67092;SDS011;54011;50.772;7.730;2022-11-02T07:36:34;9.75;;;2.13;;
67092;SDS011;54011;50.772;7.730;2022-11-02T07:39:00;10.48;;;2.40;;
67092;SDS011;54011;50.772;7.730;2022-11-02T07:41:25;13.00;;;2.25;;
67092;SDS011;54011;50.772;7.730;2022-11-02T07:43:50;10.65;;;2.25;;
67092;SDS011;54011;50.772;7.730;2022-11-02T07:48:57;13.30;;;1.77;;
67092;SDS011;54011;50.772;7.730;2022-11-02T07:51:22;7.95;;;1.55;;
67092;SDS011;54011;50.772;7.730;2022-11-02T07:53:47;10.07;;;2.05;;
67092;SDS011;54011;50.772;7.730;2022-11-02T07:56:13;7.97;;;1.63;;
67092;SDS011;54011;50.772;7.730;2022-11-02T07:58:38;6.78;;;1.90;;
67092;SDS011;54011;50.772;7.730;2022-11-02T08:01:04;12.48;;;1.88;;
67092;SDS011;54011;50.772;7.730;2022-11-02T08:03:29;11.95;;;2.00;;
67092;SDS011;54011;50.772;7.730;2022-11-02T08:05:55;7.65;;;1.85;;
67092;SDS011;54011;50.772;7.730;2022-11-02T08:08:21;8.48;;;2.33;;
67092;SDS011;54011;50.772;7.730;2022-11-02T08:10:49;16.75;;;2.45;;
67092;SDS011;54011;50.772;7.730;2022-11-02T08:13:16;13.15;;;2.28;;
67092;SDS011;54011;50.772;7.730;2022-11-02T08:15:50;14.75;;;2.67;;
67092;SDS011;54011;50.772;7.730;2022-11-02T08:18:17;11.15;;;1.83;;
67092;SDS011;54011;50.772;7.730;2022-11-02T08:20:44;12.75;;;1.92;;
67092;SDS011;54011;50.772;7.730;2022-11-02T08:23:10;9.00;;;2.03;;
67092;SDS011;54011;50.772;7.730;2022-11-02T08:25:36;10.15;;;1.70;;
67092;SDS011;54011;50.772;7.730;2022-11-02T08:28:03;10.35;;;1.65;;
67092;SDS011;54011;50.772;7.730;2022-11-02T08:30:29;6.28;;;1.30;;
67092;SDS011;54011;50.772;7.730;2022-11-02T08:33:06;10.27;;;1.45;;
67092;SDS011;54011;50.772;7.730;2022-11-02T08:35:35;11.27;;;1.83;;
67092;SDS011;54011;50.772;7.730;2022-11-02T08:38:01;10.80;;;1.60;;
67092;SDS011;54011;50.772;7.730;2022-11-02T08:40:28;12.30;;;1.83;;
67092;SDS011;54011;50.772;7.730;2022-11-02T08:42:54;8.82;;;1.67;;
67092;SDS011;54011;50.772;7.730;2022-11-02T08:45:23;15.60;;;2.00;;
67092;SDS011;54011;50.772;7.730;2022-11-02T08:47:49;10.10;;;1.90;;
67092;SDS011;54011;50.772;7.730;2022-11-02T08:50:14;9.48;;;1.65;;
67092;SDS011;54011;50.772;7.730;2022-11-02T08:52:39;9.30;;;1.92;;
67092;SDS011;54011;50.772;7.730;2022-11-02T08:55:05;7.28;;;1.60;;
67092;SDS011;54011;50.772;7.730;2022-11-02T08:57:30;7.53;;;1.55;;
67092;SDS011;54011;50.772;7.730;2022-11-02T08:59:56;8.77;;;1.63;;
67092;SDS011;54011;50.772;7.730;2022-11-02T09:02:21;11.75;;;1.55;;
67092;SDS011;54011;50.772;7.730;2022-11-02T09:04:47;9.35;;;1.70;;
67092;SDS011;54011;50.772;7.730;2022-11-02T09:07:12;10.18;;;2.13;;
67092;SDS011;54011;50.772;7.730;2022-11-02T09:09:38;12.15;;;1.50;;
67092;SDS011;54011;50.772;7.730;2022-11-02T09:12:03;11.93;;;2.00;;
67092;SDS011;54011;50.772;7.730;2022-11-02T09:14:29;9.35;;;1.83;;
67092;SDS011;54011;50.772;7.730;2022-11-02T09:16:54;8.25;;;1.10;;
67092;SDS011;54011;50.772;7.730;2022-11-02T09:19:19;6.93;;;1.35;;
67092;SDS011;54011;50.772;7.730;2022-11-02T09:21:45;6.63;;;1.05;;
67092;SDS011;54011;50.772;7.730;2022-11-02T09:24:12;10.90;;;1.52;;
67092;SDS011;54011;50.772;7.730;2022-11-02T09:26:37;11.23;;;1.63;;
67092;SDS011;54011;50.772;7.730;2022-11-02T09:29:03;8.80;;;1.50;;
67092;SDS011;54011;50.772;7.730;2022-11-02T09:31:28;7.82;;;1.42;;
67092;SDS011;54011;50.772;7.730;2022-11-02T09:33:54;7.63;;;1.52;;
67092;SDS011;54011;50.772;7.730;2022-11-02T09:36:19;12.70;;;1.88;;
67092;SDS011;54011;50.772;7.730;2022-11-02T09:38:45;9.98;;;1.70;;
67092;SDS011;54011;50.772;7.730;2022-11-02T09:41:11;6.50;;;1.15;;
67092;SDS011;54011;50.772;7.730;2022-11-02T09:43:48;4.93;;;1.23;;
67092;SDS011;54011;50.772;7.730;2022-11-02T09:46:18;8.95;;;1.52;;
67092;SDS011;54011;50.772;7.730;2022-11-02T09:48:49;9.13;;;1.38;;
67092;SDS011;54011;50.772;7.730;2022-11-02T09:51:21;6.43;;;1.42;;
67092;SDS011;54011;50.772;7.730;2022-11-02T09:56:34;10.23;;;1.58;;
67092;SDS011;54011;50.772;7.730;2022-11-02T09:59:01;8.65;;;1.35;;
67092;SDS011;54011;50.772;7.730;2022-11-02T10:06:50;7.95;;;1.65;;
67092;SDS011;54011;50.772;7.730;2022-11-02T10:12:11;10.20;;;1.67;;
67092;SDS011;54011;50.772;7.730;2022-11-02T10:15:01;6.95;;;1.20;;
67092;SDS011;54011;50.772;7.730;2022-11-02T10:17:32;8.48;;;1.17;;
67092;SDS011;54011;50.772;7.730;2022-11-02T10:20:02;7.18;;;1.00;;
67092;SDS011;54011;50.772;7.730;2022-11-02T10:22:38;9.43;;;1.58;;
67092;SDS011;54011;50.772;7.730;2022-11-02T10:25:06;6.68;;;1.20;;
67092;SDS011;54011;50.772;7.730;2022-11-02T10:27:36;8.07;;;1.17;;
67092;SDS011;54011;50.772;7.730;2022-11-02T10:30:04;10.80;;;1.67;;
67092;SDS011;54011;50.772;7.730;2022-11-02T10:32:32;10.23;;;1.50;;
67092;SDS011;54011;50.772;7.730;2022-11-02T10:35:01;8.35;;;1.30;;
67092;SDS011;54011;50.772;7.730;2022-11-02T10:52:00;7.85;;;1.52;;
67092;SDS011;54011;50.772;7.730;2022-11-02T10:54:25;8.40;;;1.40;;
67092;SDS011;54011;50.772;7.730;2022-11-02T10:56:50;5.18;;;1.13;;
67092;SDS011;54011;50.772;7.730;2022-11-02T10:59:19;8.00;;;1.50;;
67092;SDS011;54011;50.772;7.730;2022-11-02T11:04:20;5.68;;;1.10;;
67092;SDS011;54011;50.772;7.730;2022-11-02T11:06:48;7.65;;;1.25;;
67092;SDS011;54011;50.772;7.730;2022-11-02T11:09:36;8.20;;;1.25;;
67092;SDS011;54011;50.772;7.730;2022-11-02T11:12:03;9.65;;;1.33;;
67092;SDS011;54011;50.772;7.730;2022-11-02T11:14:32;9.38;;;1.30;;
67092;SDS011;54011;50.772;7.730;2022-11-02T11:17:23;6.70;;;1.20;;
67092;SDS011;54011;50.772;7.730;2022-11-02T11:20:23;7.22;;;1.10;;
67092;SDS011;54011;50.772;7.730;2022-11-02T11:25:56;9.25;;;1.50;;
67092;SDS011;54011;50.772;7.730;2022-11-02T11:28:25;11.90;;;1.25;;
67092;SDS011;54011;50.772;7.730;2022-11-02T11:31:05;6.90;;;1.30;;
67092;SDS011;54011;50.772;7.730;2022-11-02T11:33:40;8.38;;;1.33;;
67092;SDS011;54011;50.772;7.730;2022-11-02T11:36:08;7.95;;;1.35;;
67092;SDS011;54011;50.772;7.730;2022-11-02T11:38:34;8.43;;;1.35;;
67092;SDS011;54011;50.772;7.730;2022-11-02T11:41:00;2.65;;;0.93;;
67092;SDS011;54011;50.772;7.730;2022-11-02T11:43:28;8.35;;;1.42;;
67092;SDS011;54011;50.772;7.730;2022-11-02T11:46:00;13.32;;;1.45;;
67092;SDS011;54011;50.772;7.730;2022-11-02T11:56:55;4.43;;;1.00;;
67092;SDS011;54011;50.772;7.730;2022-11-02T12:02:19;8.48;;;1.35;;
67092;SDS011;54011;50.772;7.730;2022-11-02T12:04:48;11.82;;;1.35;;
67092;SDS011;54011;50.772;7.730;2022-11-02T12:07:22;7.93;;;1.40;;
67092;SDS011;54011;50.772;7.730;2022-11-02T12:10:31;7.75;;;1.40;;
67092;SDS011;54011;50.772;7.730;2022-11-02T12:15:53;9.82;;;1.80;;
67092;SDS011;54011;50.772;7.730;2022-11-02T12:27:13;11.85;;;1.58;;
67092;SDS011;54011;50.772;7.730;2022-11-02T12:29:54;5.65;;;1.10;;
67092;SDS011;54011;50.772;7.730;2022-11-02T12:37:59;9.50;;;1.50;;
67092;SDS011;54011;50.772;7.730;2022-11-02T12:57:10;7.38;;;1.75;;
67092;SDS011;54011;50.772;7.730;2022-11-02T12:59:40;10.75;;;1.58;;
67092;SDS011;54011;50.772;7.730;2022-11-02T13:02:12;10.13;;;1.23;;
67092;SDS011;54011;50.772;7.730;2022-11-02T13:04:51;7.10;;;1.40;;
67092;SDS011;54011;50.772;7.730;2022-11-02T13:07:23;7.75;;;1.33;;
67092;SDS011;54011;50.772;7.730;2022-11-02T13:12:28;11.50;;;1.50;;
67092;SDS011;54011;50.772;7.730;2022-11-02T13:14:57;8.75;;;1.80;;
67092;SDS011;54011;50.772;7.730;2022-11-02T13:17:30;6.32;;;1.10;;
67092;SDS011;54011;50.772;7.730;2022-11-02T13:20:08;7.57;;;1.23;;
67092;SDS011;54011;50.772;7.730;2022-11-02T13:23:00;8.85;;;1.45;;
67092;SDS011;54011;50.772;7.730;2022-11-02T13:25:32;9.13;;;1.63;;
67092;SDS011;54011;50.772;7.730;2022-11-02T13:28:29;8.75;;;1.55;;
67092;SDS011;54011;50.772;7.730;2022-11-02T13:30:54;9.82;;;1.30;;
67092;SDS011;54011;50.772;7.730;2022-11-02T13:33:24;11.57;;;1.77;;
67092;SDS011;54011;50.772;7.730;2022-11-02T13:35:54;7.80;;;1.83;;
67092;SDS011;54011;50.772;7.730;2022-11-02T13:38:30;5.60;;;1.25;;
67092;SDS011;54011;50.772;7.730;2022-11-02T13:49:25;9.15;;;1.40;;
67092;SDS011;54011;50.772;7.730;2022-11-02T13:52:05;7.15;;;1.35;;
67092;SDS011;54011;50.772;7.730;2022-11-02T13:54:40;9.50;;;1.77;;
67092;SDS011;54011;50.772;7.730;2022-11-02T13:57:20;6.75;;;1.35;;
67092;SDS011;54011;50.772;7.730;2022-11-02T13:59:55;11.80;;;1.52;;
67092;SDS011;54011;50.772;7.730;2022-11-02T14:02:20;7.38;;;1.20;;
67092;SDS011;54011;50.772;7.730;2022-11-02T14:04:48;8.85;;;1.38;;
67092;SDS011;54011;50.772;7.730;2022-11-02T14:07:24;8.75;;;1.42;;
67092;SDS011;54011;50.772;7.730;2022-11-02T14:10:23;8.80;;;1.60;;
67092;SDS011;54011;50.772;7.730;2022-11-02T14:12:48;6.65;;;1.23;;
67092;SDS011;54011;50.772;7.730;2022-11-02T14:39:29;8.43;;;1.38;;
67092;SDS011;54011;50.772;7.730;2022-11-02T14:47:34;8.50;;;1.42;;
67092;SDS011;54011;50.772;7.730;2022-11-02T14:52:34;10.30;;;1.30;;
67092;SDS011;54011;50.772;7.730;2022-11-02T14:57:29;8.68;;;1.30;;
67092;SDS011;54011;50.772;7.730;2022-11-02T14:59:59;7.43;;;1.15;;
67092;SDS011;54011;50.772;7.730;2022-11-02T15:02:34;9.68;;;1.60;;
67092;SDS011;54011;50.772;7.730;2022-11-02T15:05:04;9.48;;;1.40;;
67092;SDS011;54011;50.772;7.730;2022-11-02T15:12:42;13.35;;;1.60;;
67092;SDS011;54011;50.772;7.730;2022-11-02T15:20:25;15.23;;;1.52;;
67092;SDS011;54011;50.772;7.730;2022-11-02T15:22:59;9.40;;;1.50;;
67092;SDS011;54011;50.772;7.730;2022-11-02T15:25:34;12.02;;;1.50;;
67092;SDS011;54011;50.772;7.730;2022-11-02T15:28:04;14.20;;;1.98;;
67092;SDS011;54011;50.772;7.730;2022-11-02T15:30:37;5.85;;;1.40;;
67092;SDS011;54011;50.772;7.730;2022-11-02T15:33:13;8.57;;;1.30;;
67092;SDS011;54011;50.772;7.730;2022-11-02T15:35:43;9.68;;;1.42;;
67092;SDS011;54011;50.772;7.730;2022-11-02T15:38:10;10.93;;;1.70;;
67092;SDS011;54011;50.772;7.730;2022-11-02T15:40:47;7.93;;;1.58;;
67092;SDS011;54011;50.772;7.730;2022-11-02T15:43:38;10.43;;;1.57;;
67092;SDS011;54011;50.772;7.730;2022-11-02T16:02:40;12.00;;;1.60;;
67092;SDS011;54011;50.772;7.730;2022-11-02T16:05:14;12.40;;;1.33;;
67092;SDS011;54011;50.772;7.730;2022-11-02T16:07:44;11.45;;;1.52;;
67092;SDS011;54011;50.772;7.730;2022-11-02T16:10:11;7.43;;;1.20;;
67092;SDS011;54011;50.772;7.730;2022-11-02T16:15:25;8.20;;;1.30;;
67092;SDS011;54011;50.772;7.730;2022-11-02T16:17:52;8.18;;;1.65;;
67092;SDS011;54011;50.772;7.730;2022-11-02T16:23:03;10.98;;;1.20;;
67092;SDS011;54011;50.772;7.730;2022-11-02T16:31:03;10.90;;;1.63;;
67092;SDS011;54011;50.772;7.730;2022-11-02T16:33:45;10.73;;;1.75;;
67092;SDS011;54011;50.772;7.730;2022-11-02T16:36:13;10.20;;;1.80;;
67092;SDS011;54011;50.772;7.730;2022-11-02T16:38:46;12.00;;;1.33;;
67092;SDS011;54011;50.772;7.730;2022-11-02T16:41:17;8.68;;;1.30;;
67092;SDS011;54011;50.772;7.730;2022-11-02T16:43:43;8.32;;;1.52;;
67092;SDS011;54011;50.772;7.730;2022-11-02T16:46:13;11.05;;;1.80;;
67092;SDS011;54011;50.772;7.730;2022-11-02T16:51:36;9.35;;;1.60;;
67092;SDS011;54011;50.772;7.730;2022-11-02T16:59:35;11.23;;;1.45;;
67092;SDS011;54011;50.772;7.730;2022-11-02T17:02:03;10.18;;;1.73;;
67092;SDS011;54011;50.772;7.730;2022-11-02T17:04:29;7.05;;;1.38;;
67092;SDS011;54011;50.772;7.730;2022-11-02T17:06:57;7.05;;;1.73;;
67092;SDS011;54011;50.772;7.730;2022-11-02T17:09:35;10.43;;;1.60;;
67092;SDS011;54011;50.772;7.730;2022-11-02T17:12:12;7.47;;;1.55;;
67092;SDS011;54011;50.772;7.730;2022-11-02T17:14:40;12.40;;;2.28;;
67092;SDS011;54011;50.772;7.730;2022-11-02T17:20:06;10.30;;;1.90;;
67092;SDS011;54011;50.772;7.730;2022-11-02T17:22:35;11.13;;;2.08;;
67092;SDS011;54011;50.772;7.730;2022-11-02T17:27:46;9.35;;;1.60;;
67092;SDS011;54011;50.772;7.730;2022-11-02T17:32:58;9.05;;;1.58;;
67092;SDS011;54011;50.772;7.730;2022-11-02T17:35:34;13.75;;;1.92;;
67092;SDS011;54011;50.772;7.730;2022-11-02T17:38:01;16.05;;;1.90;;
67092;SDS011;54011;50.772;7.730;2022-11-02T17:40:27;8.00;;;1.73;;
67092;SDS011;54011;50.772;7.730;2022-11-02T17:42:53;12.90;;;1.90;;
67092;SDS011;54011;50.772;7.730;2022-11-02T17:47:55;12.85;;;1.90;;
67092;SDS011;54011;50.772;7.730;2022-11-02T17:50:25;9.40;;;1.60;;
67092;SDS011;54011;50.772;7.730;2022-11-02T17:52:52;9.85;;;1.85;;
67092;SDS011;54011;50.772;7.730;2022-11-02T17:55:19;13.85;;;2.08;;
67092;SDS011;54011;50.772;7.730;2022-11-02T17:57:46;7.60;;;1.70;;
67092;SDS011;54011;50.772;7.730;2022-11-02T18:00:12;7.65;;;2.00;;
67092;SDS011;54011;50.772;7.730;2022-11-02T18:02:42;8.93;;;2.13;;
67092;SDS011;54011;50.772;7.730;2022-11-02T18:07:54;8.05;;;2.33;;
67092;SDS011;54011;50.772;7.730;2022-11-02T18:10:22;16.33;;;3.33;;
67092;SDS011;54011;50.772;7.730;2022-11-02T18:12:49;18.48;;;5.22;;
67092;SDS011;54011;50.772;7.730;2022-11-02T18:15:20;17.75;;;4.88;;
67092;SDS011;54011;50.772;7.730;2022-11-02T18:17:47;19.15;;;3.35;;
67092;SDS011;54011;50.772;7.730;2022-11-02T18:20:13;11.48;;;2.60;;
67092;SDS011;54011;50.772;7.730;2022-11-02T18:22:39;10.70;;;2.10;;
67092;SDS011;54011;50.772;7.730;2022-11-02T18:25:12;10.77;;;2.20;;
67092;SDS011;54011;50.772;7.730;2022-11-02T18:27:39;16.23;;;2.20;;
67092;SDS011;54011;50.772;7.730;2022-11-02T18:30:05;11.88;;;2.95;;
67092;SDS011;54011;50.772;7.730;2022-11-02T18:32:37;8.57;;;2.72;;
67092;SDS011;54011;50.772;7.730;2022-11-02T18:35:05;12.57;;;3.45;;